LAN368 SCSE-SCFA
Flight info
| Callsign | LAN368 |
|---|---|
| Flight time | 1h 7m |
| Altitude | 36000 |
| Route | VUGUS UQ802 LONEK LONEK2A |
| Aircraft | A320/M-SDE3FGHIRWY/LB1 |
Departure
| Time | 2026-04-17 23:05 |
|---|---|
| Airport | La Florida Airport (SCSE) |
Arrival
| Time | 2026-04-18 00:12 |
|---|---|
| Airport | Andrés Sabella Gálvez International Airport (SCFA) |
| Time | Latitude | Longitude | Altitude | Speed | Heading |
|---|---|---|---|---|---|
| 2026-04-17 22:53 | -29.91669 | -71.20341 | 480 ft | 0 kts | 205° |
| 2026-04-17 22:58 | -29.91659 | -71.20335 | 472 ft | 3 kts | 202° |
| 2026-04-17 22:58 | -29.91640 | -71.20328 | 478 ft | 3 kts | 189° |
| 2026-04-17 22:59 | -29.91621 | -71.20327 | 474 ft | 3 kts | 161° |
| 2026-04-17 22:59 | -29.91608 | -71.20335 | 476 ft | 2 kts | 119° |
| 2026-04-17 22:59 | -29.91607 | -71.20338 | 475 ft | 0 kts | 116° |
| 2026-04-17 23:02 | -29.91607 | -71.20337 | 480 ft | 1 kts | 116° |
| 2026-04-17 23:02 | -29.91634 | -71.20277 | 473 ft | 15 kts | 117° |
| 2026-04-17 23:02 | -29.91671 | -71.20178 | 480 ft | 10 kts | 92° |
| 2026-04-17 23:03 | -29.91624 | -71.20131 | 479 ft | 9 kts | 28° |
| 2026-04-17 23:03 | -29.91596 | -71.20059 | 478 ft | 16 kts | 98° |
| 2026-04-17 23:03 | -29.91677 | -71.19871 | 474 ft | 35 kts | 117° |
| 2026-04-17 23:03 | -29.91808 | -71.19570 | 472 ft | 48 kts | 116° |
| 2026-04-17 23:04 | -29.91961 | -71.19221 | 476 ft | 48 kts | 117° |
| 2026-04-17 23:04 | -29.92048 | -71.19075 | 471 ft | 12 kts | 97° |
| 2026-04-17 23:04 | -29.92020 | -71.19071 | 474 ft | 6 kts | 304° |
| 2026-04-17 23:04 | -29.91948 | -71.19243 | 480 ft | 57 kts | 296° |
| 2026-04-17 23:05 | -29.91660 | -71.19918 | 477 ft | 127 kts | 296° |
| 2026-04-17 23:05 | -29.91202 | -71.20995 | 715 ft | 162 kts | 295° |
| 2026-04-17 23:05 | -29.90684 | -71.22204 | 1282 ft | 178 kts | 296° |
| 2026-04-17 23:05 | -29.90100 | -71.23560 | 1688 ft | 200 kts | 296° |
| 2026-04-17 23:06 | -29.89442 | -71.25076 | 2024 ft | 224 kts | 298° |
| 2026-04-17 23:06 | -29.88338 | -71.26446 | 2465 ft | 250 kts | 332° |
| 2026-04-17 23:06 | -29.86591 | -71.26812 | 3121 ft | 265 kts | 6° |
| 2026-04-17 23:06 | -29.84768 | -71.26352 | 4021 ft | 271 kts | 18° |
| 2026-04-17 23:07 | -29.82969 | -71.25647 | 5001 ft | 274 kts | 19° |
| 2026-04-17 23:07 | -29.81165 | -71.24932 | 6018 ft | 274 kts | 18° |
| 2026-04-17 23:07 | -29.79338 | -71.24281 | 6998 ft | 274 kts | 15° |
| 2026-04-17 23:07 | -29.77520 | -71.23715 | 7937 ft | 275 kts | 13° |
| 2026-04-17 23:08 | -29.75663 | -71.23203 | 8890 ft | 275 kts | 11° |
| 2026-04-17 23:08 | -29.73793 | -71.22726 | 9842 ft | 275 kts | 11° |
| 2026-04-17 23:08 | -29.71881 | -71.22258 | 10368 ft | 291 kts | 10° |
| 2026-04-17 23:08 | -29.69824 | -71.21765 | 10704 ft | 311 kts | 10° |
| 2026-04-17 23:09 | -29.67677 | -71.21254 | 11329 ft | 319 kts | 10° |
| 2026-04-17 23:09 | -29.65480 | -71.20729 | 12022 ft | 325 kts | 9° |
| 2026-04-17 23:09 | -29.63244 | -71.20197 | 12727 ft | 331 kts | 9° |
| 2026-04-17 23:09 | -29.60969 | -71.19657 | 13423 ft | 337 kts | 9° |
| 2026-04-17 23:10 | -29.58652 | -71.19109 | 14070 ft | 343 kts | 9° |
| 2026-04-17 23:10 | -29.56294 | -71.18549 | 14658 ft | 348 kts | 9° |
| 2026-04-17 23:10 | -29.53908 | -71.17980 | 15240 ft | 353 kts | 8° |
| 2026-04-17 23:10 | -29.51485 | -71.17400 | 15867 ft | 357 kts | 8° |
| 2026-04-17 23:11 | -29.49040 | -71.16811 | 16495 ft | 361 kts | 8° |
| 2026-04-17 23:11 | -29.46569 | -71.16216 | 17126 ft | 365 kts | 8° |
| 2026-04-17 23:11 | -29.44067 | -71.15617 | 17754 ft | 369 kts | 8° |
| 2026-04-17 23:11 | -29.41570 | -71.15021 | 18348 ft | 374 kts | 8° |
| 2026-04-17 23:12 | -29.39008 | -71.14413 | 18869 ft | 378 kts | 7° |
| 2026-04-17 23:12 | -29.36418 | -71.13800 | 19386 ft | 382 kts | 7° |
| 2026-04-17 23:12 | -29.33803 | -71.13179 | 19896 ft | 386 kts | 7° |
| 2026-04-17 23:12 | -29.31157 | -71.12550 | 20402 ft | 390 kts | 7° |
| 2026-04-17 23:13 | -29.28485 | -71.11916 | 20859 ft | 395 kts | 7° |
| 2026-04-17 23:13 | -29.25778 | -71.11275 | 21356 ft | 399 kts | 7° |
| 2026-04-17 23:13 | -29.23050 | -71.10626 | 21827 ft | 403 kts | 7° |
| 2026-04-17 23:13 | -29.20299 | -71.09965 | 22292 ft | 405 kts | 6° |
| 2026-04-17 23:14 | -29.17522 | -71.09300 | 22732 ft | 410 kts | 6° |
| 2026-04-17 23:14 | -29.14711 | -71.08635 | 23164 ft | 415 kts | 6° |
| 2026-04-17 23:14 | -29.11872 | -71.07965 | 23610 ft | 419 kts | 6° |
| 2026-04-17 23:14 | -29.09009 | -71.07285 | 24028 ft | 422 kts | 6° |
| 2026-04-17 23:15 | -29.06123 | -71.06599 | 24433 ft | 425 kts | 6° |
| 2026-04-17 23:15 | -29.03223 | -71.05910 | 24837 ft | 427 kts | 6° |
| 2026-04-17 23:15 | -29.00304 | -71.05221 | 25217 ft | 429 kts | 6° |
| 2026-04-17 23:15 | -28.97371 | -71.04531 | 25612 ft | 432 kts | 6° |
| 2026-04-17 23:16 | -28.94416 | -71.03838 | 26015 ft | 435 kts | 6° |
| 2026-04-17 23:16 | -28.91444 | -71.03141 | 26417 ft | 437 kts | 6° |
| 2026-04-17 23:16 | -28.88457 | -71.02435 | 26824 ft | 439 kts | 6° |
| 2026-04-17 23:16 | -28.85495 | -71.01737 | 27230 ft | 441 kts | 6° |
| 2026-04-17 23:17 | -28.82480 | -71.01027 | 27585 ft | 444 kts | 6° |
| 2026-04-17 23:17 | -28.79445 | -71.00310 | 27964 ft | 447 kts | 6° |
| 2026-04-17 23:17 | -28.76390 | -70.99586 | 28374 ft | 449 kts | 6° |
| 2026-04-17 23:17 | -28.73324 | -70.98861 | 28751 ft | 452 kts | 6° |
| 2026-04-17 23:18 | -28.70232 | -70.98136 | 29097 ft | 454 kts | 7° |
| 2026-04-17 23:18 | -28.67124 | -70.97409 | 29465 ft | 457 kts | 6° |
| 2026-04-17 23:18 | -28.64002 | -70.96676 | 29857 ft | 460 kts | 7° |
| 2026-04-17 23:18 | -28.60858 | -70.95935 | 30204 ft | 462 kts | 7° |
| 2026-04-17 23:19 | -28.57701 | -70.95194 | 30506 ft | 464 kts | 7° |
| 2026-04-17 23:19 | -28.54532 | -70.94450 | 30807 ft | 466 kts | 7° |
| 2026-04-17 23:19 | -28.51348 | -70.93705 | 31098 ft | 468 kts | 7° |
| 2026-04-17 23:19 | -28.48178 | -70.93188 | 31374 ft | 466 kts | 0° |
| 2026-04-17 23:20 | -28.44946 | -70.92854 | 31650 ft | 467 kts | 1° |
| 2026-04-17 23:20 | -28.41708 | -70.92524 | 32033 ft | 466 kts | 1° |
| 2026-04-17 23:20 | -28.38482 | -70.92195 | 32433 ft | 465 kts | 1° |
| 2026-04-17 23:20 | -28.35256 | -70.91864 | 32850 ft | 465 kts | 1° |
| 2026-04-17 23:21 | -28.32041 | -70.91533 | 33256 ft | 464 kts | 1° |
| 2026-04-17 23:21 | -28.28828 | -70.91199 | 33659 ft | 463 kts | 1° |
| 2026-04-17 23:21 | -28.25621 | -70.90863 | 34041 ft | 462 kts | 1° |
| 2026-04-17 23:21 | -28.22421 | -70.90522 | 34389 ft | 461 kts | 1° |
| 2026-04-17 23:22 | -28.19234 | -70.90177 | 34746 ft | 460 kts | 1° |
| 2026-04-17 23:22 | -28.16051 | -70.89834 | 35098 ft | 458 kts | 1° |
| 2026-04-17 23:22 | -28.12887 | -70.89495 | 35481 ft | 455 kts | 1° |
| 2026-04-17 23:22 | -28.09736 | -70.89158 | 35848 ft | 453 kts | 1° |
| 2026-04-17 23:23 | -28.06601 | -70.88825 | 35989 ft | 451 kts | 1° |
| 2026-04-17 23:23 | -28.03499 | -70.88496 | 36016 ft | 445 kts | 0° |
| 2026-04-17 23:23 | -27.97398 | -70.87850 | 36013 ft | 442 kts | 0° |
| 2026-04-17 23:24 | -27.91275 | -70.87204 | 36016 ft | 442 kts | 0° |
| 2026-04-17 23:24 | -27.85156 | -70.86554 | 36018 ft | 441 kts | 1° |
| 2026-04-17 23:25 | -27.79047 | -70.85903 | 36019 ft | 441 kts | 1° |
| 2026-04-17 23:25 | -27.72940 | -70.85255 | 36024 ft | 440 kts | 1° |
| 2026-04-17 23:26 | -27.66835 | -70.84608 | 36027 ft | 440 kts | 1° |
| 2026-04-17 23:26 | -27.60738 | -70.83967 | 36026 ft | 440 kts | 1° |
| 2026-04-17 23:27 | -27.54640 | -70.83336 | 36009 ft | 439 kts | 1° |
| 2026-04-17 23:27 | -27.48549 | -70.82699 | 36014 ft | 439 kts | 1° |
| 2026-04-17 23:28 | -27.42462 | -70.82050 | 36018 ft | 439 kts | 1° |
| 2026-04-17 23:28 | -27.36378 | -70.81408 | 36029 ft | 439 kts | 1° |
| 2026-04-17 23:29 | -27.30331 | -70.80773 | 36022 ft | 439 kts | 2° |
| 2026-04-17 23:29 | -27.24247 | -70.80136 | 36026 ft | 439 kts | 1° |
| 2026-04-17 23:30 | -27.18168 | -70.79499 | 36022 ft | 438 kts | 1° |
| 2026-04-17 23:30 | -27.12096 | -70.78868 | 36022 ft | 438 kts | 1° |
| 2026-04-17 23:31 | -27.06027 | -70.78234 | 36028 ft | 438 kts | 1° |
| 2026-04-17 23:31 | -26.99963 | -70.77602 | 36020 ft | 437 kts | 1° |
| 2026-04-17 23:32 | -26.93901 | -70.76973 | 36021 ft | 437 kts | 1° |
| 2026-04-17 23:32 | -26.87838 | -70.76338 | 36022 ft | 438 kts | 1° |
| 2026-04-17 23:33 | -26.81772 | -70.75704 | 36023 ft | 438 kts | 1° |
| 2026-04-17 23:33 | -26.75704 | -70.75071 | 36028 ft | 438 kts | 1° |
| 2026-04-17 23:34 | -26.69637 | -70.74444 | 36018 ft | 438 kts | 2° |
| 2026-04-17 23:34 | -26.63618 | -70.73734 | 36020 ft | 438 kts | 4° |
| 2026-04-17 23:35 | -26.57584 | -70.72688 | 36020 ft | 439 kts | 6° |
| 2026-04-17 23:35 | -26.51564 | -70.71554 | 36026 ft | 439 kts | 6° |
| 2026-04-17 23:36 | -26.45532 | -70.70492 | 36023 ft | 438 kts | 5° |
| 2026-04-17 23:36 | -26.39478 | -70.69724 | 36014 ft | 436 kts | 1° |
| 2026-04-17 23:37 | -26.33428 | -70.69287 | 36015 ft | 435 kts | 0° |
| 2026-04-17 23:37 | -26.27382 | -70.68861 | 36016 ft | 435 kts | 1° |
| 2026-04-17 23:38 | -26.21376 | -70.68348 | 36016 ft | 436 kts | 1° |
| 2026-04-17 23:38 | -26.15319 | -70.67791 | 36016 ft | 436 kts | 1° |
| 2026-04-17 23:39 | -26.09276 | -70.67245 | 36007 ft | 436 kts | 1° |
| 2026-04-17 23:39 | -26.03242 | -70.66719 | 36014 ft | 436 kts | 1° |
| 2026-04-17 23:40 | -25.97227 | -70.66198 | 36019 ft | 436 kts | 1° |
| 2026-04-17 23:40 | -25.91156 | -70.65662 | 36023 ft | 436 kts | 1° |
| 2026-04-17 23:41 | -25.85122 | -70.65124 | 36022 ft | 435 kts | 1° |
| 2026-04-17 23:41 | -25.79066 | -70.64601 | 36022 ft | 435 kts | 1° |
| 2026-04-17 23:42 | -25.73072 | -70.64079 | 36022 ft | 435 kts | 1° |
| 2026-04-17 23:42 | -25.67044 | -70.63552 | 36021 ft | 434 kts | 1° |
| 2026-04-17 23:43 | -25.61012 | -70.63037 | 36018 ft | 434 kts | 1° |
| 2026-04-17 23:43 | -25.55028 | -70.62524 | 36014 ft | 434 kts | 1° |
| 2026-04-17 23:44 | -25.49006 | -70.62002 | 36002 ft | 434 kts | 1° |
| 2026-04-17 23:44 | -25.42997 | -70.61474 | 36006 ft | 433 kts | 1° |
| 2026-04-17 23:45 | -25.33967 | -70.60693 | 36001 ft | 433 kts | 1° |
| 2026-04-17 23:46 | -25.27955 | -70.60180 | 36002 ft | 434 kts | 1° |
| 2026-04-17 23:46 | -25.21940 | -70.59663 | 35993 ft | 434 kts | 1° |
| 2026-04-17 23:47 | -25.15913 | -70.59139 | 35998 ft | 434 kts | 1° |
| 2026-04-17 23:47 | -25.09886 | -70.58616 | 36003 ft | 434 kts | 1° |
| 2026-04-17 23:48 | -25.03898 | -70.58095 | 36006 ft | 434 kts | 1° |
| 2026-04-17 23:48 | -24.97850 | -70.57580 | 36006 ft | 434 kts | 1° |
| 2026-04-17 23:49 | -24.91827 | -70.57072 | 36002 ft | 434 kts | 0° |
| 2026-04-17 23:49 | -24.85794 | -70.56553 | 35986 ft | 437 kts | 0° |
| 2026-04-17 23:50 | -24.79703 | -70.56036 | 35984 ft | 439 kts | 359° |
| 2026-04-17 23:50 | -24.73619 | -70.55903 | 35984 ft | 438 kts | 355° |
| 2026-04-17 23:51 | -24.67522 | -70.56060 | 35990 ft | 438 kts | 354° |
| 2026-04-17 23:51 | -24.61420 | -70.56195 | 35993 ft | 439 kts | 355° |
| 2026-04-17 23:52 | -24.55311 | -70.56243 | 36010 ft | 438 kts | 355° |
| 2026-04-17 23:52 | -24.49204 | -70.56255 | 35920 ft | 437 kts | 355° |
| 2026-04-17 23:52 | -24.46179 | -70.56261 | 34874 ft | 435 kts | 357° |
| 2026-04-17 23:53 | -24.43177 | -70.56273 | 33682 ft | 438 kts | 359° |
| 2026-04-17 23:53 | -24.40138 | -70.56290 | 32569 ft | 435 kts | 359° |
| 2026-04-17 23:53 | -24.37124 | -70.56312 | 31562 ft | 431 kts | 359° |
| 2026-04-17 23:53 | -24.34136 | -70.56337 | 30592 ft | 427 kts | 359° |
| 2026-04-17 23:54 | -24.31181 | -70.56362 | 29567 ft | 424 kts | 359° |
| 2026-04-17 23:54 | -24.28247 | -70.56383 | 28552 ft | 419 kts | 359° |
| 2026-04-17 23:54 | -24.26287 | -70.56394 | 27898 ft | 415 kts | 359° |
| 2026-04-17 23:54 | -24.22492 | -70.56415 | 26673 ft | 408 kts | 359° |
| 2026-04-17 23:55 | -24.20624 | -70.56420 | 26084 ft | 404 kts | 360° |
| 2026-04-17 23:55 | -24.16899 | -70.56339 | 24927 ft | 397 kts | 1° |
| 2026-04-17 23:55 | -24.15077 | -70.56264 | 24374 ft | 394 kts | 2° |
| 2026-04-17 23:55 | -24.12358 | -70.56132 | 23545 ft | 389 kts | 1° |
| 2026-04-17 23:56 | -24.09669 | -70.55992 | 22605 ft | 385 kts | 1° |
| 2026-04-17 23:56 | -24.07007 | -70.55861 | 21717 ft | 380 kts | 1° |
| 2026-04-17 23:56 | -24.04378 | -70.55746 | 20868 ft | 376 kts | 1° |
| 2026-04-17 23:56 | -24.01775 | -70.55642 | 20039 ft | 372 kts | 1° |
| 2026-04-17 23:57 | -23.99221 | -70.55546 | 19515 ft | 361 kts | 0° |
| 2026-04-17 23:57 | -23.96753 | -70.55455 | 19070 ft | 349 kts | 1° |
| 2026-04-17 23:57 | -23.94367 | -70.55366 | 18641 ft | 338 kts | 1° |
| 2026-04-17 23:57 | -23.92051 | -70.55278 | 18212 ft | 328 kts | 0° |
| 2026-04-17 23:58 | -23.89801 | -70.55190 | 17769 ft | 319 kts | 0° |
| 2026-04-17 23:58 | -23.87616 | -70.55103 | 17380 ft | 312 kts | 0° |
| 2026-04-17 23:58 | -23.85478 | -70.55018 | 16999 ft | 310 kts | 1° |
| 2026-04-17 23:58 | -23.83332 | -70.54935 | 16619 ft | 308 kts | 1° |
| 2026-04-17 23:59 | -23.81201 | -70.54854 | 16250 ft | 305 kts | 1° |
| 2026-04-17 23:59 | -23.79087 | -70.54773 | 15880 ft | 303 kts | 1° |
| 2026-04-17 23:59 | -23.76983 | -70.54693 | 15518 ft | 302 kts | 1° |
| 2026-04-17 23:59 | -23.74894 | -70.54611 | 15148 ft | 299 kts | 1° |
| 2026-04-18 00:00 | -23.72827 | -70.54530 | 14790 ft | 296 kts | 2° |
| 2026-04-18 00:00 | -23.70775 | -70.54451 | 14435 ft | 294 kts | 2° |
| 2026-04-18 00:00 | -23.68734 | -70.54373 | 14076 ft | 292 kts | 2° |
| 2026-04-18 00:00 | -23.66707 | -70.54296 | 13719 ft | 291 kts | 3° |
| 2026-04-18 00:01 | -23.64694 | -70.54219 | 13334 ft | 288 kts | 2° |
| 2026-04-18 00:01 | -23.62693 | -70.54143 | 12978 ft | 286 kts | 2° |
| 2026-04-18 00:01 | -23.60712 | -70.54068 | 12620 ft | 284 kts | 2° |
| 2026-04-18 00:01 | -23.58748 | -70.53991 | 12264 ft | 282 kts | 2° |
| 2026-04-18 00:02 | -23.56792 | -70.53915 | 11911 ft | 280 kts | 2° |
| 2026-04-18 00:02 | -23.54848 | -70.53840 | 11551 ft | 278 kts | 2° |
| 2026-04-18 00:02 | -23.52918 | -70.53766 | 11190 ft | 276 kts | 2° |
| 2026-04-18 00:02 | -23.51001 | -70.53703 | 10834 ft | 274 kts | 359° |
| 2026-04-18 00:03 | -23.49102 | -70.53822 | 10464 ft | 272 kts | 356° |
| 2026-04-18 00:03 | -23.47241 | -70.53952 | 10108 ft | 271 kts | 356° |
| 2026-04-18 00:03 | -23.45367 | -70.54083 | 9732 ft | 268 kts | 356° |
| 2026-04-18 00:03 | -23.43523 | -70.54212 | 9338 ft | 264 kts | 356° |
| 2026-04-18 00:04 | -23.41702 | -70.54336 | 8977 ft | 262 kts | 356° |
| 2026-04-18 00:04 | -23.39889 | -70.54457 | 8600 ft | 261 kts | 356° |
| 2026-04-18 00:04 | -23.38074 | -70.54575 | 8226 ft | 262 kts | 356° |
| 2026-04-18 00:04 | -23.36258 | -70.54488 | 7837 ft | 262 kts | 5° |
| 2026-04-18 00:05 | -23.34450 | -70.54254 | 7425 ft | 262 kts | 6° |
| 2026-04-18 00:05 | -23.32636 | -70.54025 | 7001 ft | 263 kts | 5° |
| 2026-04-18 00:05 | -23.30825 | -70.53796 | 6742 ft | 257 kts | 5° |
| 2026-04-18 00:05 | -23.29098 | -70.53579 | 6657 ft | 244 kts | 5° |
| 2026-04-18 00:06 | -23.27452 | -70.53374 | 6566 ft | 233 kts | 5° |
| 2026-04-18 00:06 | -23.25893 | -70.53065 | 6448 ft | 225 kts | 22° |
| 2026-04-18 00:06 | -23.24715 | -70.52016 | 6344 ft | 219 kts | 56° |
| 2026-04-18 00:06 | -23.24280 | -70.50429 | 5994 ft | 226 kts | 90° |
| 2026-04-18 00:07 | -23.24447 | -70.48741 | 5660 ft | 222 kts | 95° |
| 2026-04-18 00:07 | -23.24629 | -70.47084 | 5300 ft | 219 kts | 95° |
| 2026-04-18 00:07 | -23.24804 | -70.45459 | 4966 ft | 214 kts | 95° |
| 2026-04-18 00:07 | -23.25018 | -70.43872 | 4631 ft | 211 kts | 105° |
| 2026-04-18 00:08 | -23.25874 | -70.42650 | 4305 ft | 203 kts | 150° |
| 2026-04-18 00:08 | -23.27195 | -70.42396 | 4032 ft | 190 kts | 191° |
| 2026-04-18 00:08 | -23.28432 | -70.42661 | 3778 ft | 179 kts | 188° |
| 2026-04-18 00:08 | -23.29637 | -70.42810 | 3515 ft | 170 kts | 185° |
| 2026-04-18 00:09 | -23.30772 | -70.42925 | 3294 ft | 157 kts | 185° |
| 2026-04-18 00:09 | -23.31829 | -70.43033 | 3053 ft | 149 kts | 185° |
| 2026-04-18 00:09 | -23.32842 | -70.43142 | 2836 ft | 144 kts | 185° |
| 2026-04-18 00:09 | -23.33832 | -70.43252 | 2627 ft | 142 kts | 185° |
| 2026-04-18 00:10 | -23.34805 | -70.43361 | 2389 ft | 140 kts | 185° |
| 2026-04-18 00:10 | -23.35770 | -70.43471 | 2151 ft | 138 kts | 185° |
| 2026-04-18 00:10 | -23.36714 | -70.43581 | 1923 ft | 135 kts | 185° |
| 2026-04-18 00:10 | -23.37644 | -70.43690 | 1713 ft | 135 kts | 186° |
| 2026-04-18 00:11 | -23.38568 | -70.43800 | 1515 ft | 133 kts | 186° |
| 2026-04-18 00:11 | -23.39483 | -70.43910 | 1324 ft | 131 kts | 186° |
| 2026-04-18 00:11 | -23.40387 | -70.44004 | 1149 ft | 130 kts | 184° |
| 2026-04-18 00:11 | -23.41289 | -70.44087 | 962 ft | 130 kts | 185° |
| 2026-04-18 00:12 | -23.42185 | -70.44222 | 782 ft | 130 kts | 188° |
| 2026-04-18 00:12 | -23.43076 | -70.44338 | 561 ft | 128 kts | 187° |
| 2026-04-18 00:12 | -23.43922 | -70.44449 | 463 ft | 104 kts | 186° |
| 2026-04-18 00:12 | -23.44351 | -70.44499 | 461 ft | 33 kts | 186° |
| 2026-04-18 00:13 | -23.44549 | -70.44523 | 460 ft | 19 kts | 177° |
| 2026-04-18 00:13 | -23.44590 | -70.44423 | 462 ft | 12 kts | 88° |
| 2026-04-18 00:13 | -23.44593 | -70.44343 | 462 ft | 8 kts | 123° |
| 2026-04-18 00:13 | -23.44646 | -70.44319 | 462 ft | 9 kts | 165° |
| 2026-04-18 00:14 | -23.44709 | -70.44301 | 462 ft | 10 kts | 165° |
| 2026-04-18 00:14 | -23.44785 | -70.44279 | 462 ft | 13 kts | 165° |
| 2026-04-18 00:14 | -23.44859 | -70.44262 | 462 ft | 10 kts | 181° |
| 2026-04-18 00:14 | -23.44914 | -70.44245 | 462 ft | 1 kts | 115° |
| 2026-04-18 00:15 | -23.44914 | -70.44229 | 462 ft | 7 kts | 93° |
| 2026-04-18 00:15 | -23.44918 | -70.44187 | 462 ft | 4 kts | 96° |
| 2026-04-18 00:15 | -23.44918 | -70.44186 | 462 ft | 0 kts | 96° |